sensor_id;sensor_type;location;lat;lon;timestamp;P1;durP1;ratioP1;P2;durP2;ratioP2
39846;SDS011;25517;52.422;10.782;2023-04-10T00:01:18;73.45;;;37.50;;
39846;SDS011;25517;52.422;10.782;2023-04-10T00:03:44;73.05;;;37.42;;
39846;SDS011;25517;52.422;10.782;2023-04-10T00:06:10;70.95;;;37.13;;
39846;SDS011;25517;52.422;10.782;2023-04-10T00:08:35;68.53;;;35.08;;
39846;SDS011;25517;52.422;10.782;2023-04-10T00:11:01;61.92;;;34.63;;
39846;SDS011;25517;52.422;10.782;2023-04-10T00:13:28;61.92;;;34.33;;
39846;SDS011;25517;52.422;10.782;2023-04-10T00:15:53;70.53;;;35.60;;
39846;SDS011;25517;52.422;10.782;2023-04-10T00:18:19;65.72;;;35.10;;
39846;SDS011;25517;52.422;10.782;2023-04-10T00:20:45;61.08;;;33.85;;
39846;SDS011;25517;52.422;10.782;2023-04-10T00:23:10;63.70;;;33.00;;
39846;SDS011;25517;52.422;10.782;2023-04-10T00:25:36;63.38;;;33.63;;
39846;SDS011;25517;52.422;10.782;2023-04-10T00:28:01;58.90;;;32.17;;
39846;SDS011;25517;52.422;10.782;2023-04-10T00:30:27;64.40;;;32.85;;
39846;SDS011;25517;52.422;10.782;2023-04-10T00:32:52;62.95;;;32.40;;
39846;SDS011;25517;52.422;10.782;2023-04-10T00:35:18;66.03;;;35.85;;
39846;SDS011;25517;52.422;10.782;2023-04-10T00:37:44;56.83;;;33.15;;
39846;SDS011;25517;52.422;10.782;2023-04-10T00:40:09;63.55;;;33.17;;
39846;SDS011;25517;52.422;10.782;2023-04-10T00:42:35;55.70;;;31.15;;
39846;SDS011;25517;52.422;10.782;2023-04-10T00:45:01;54.13;;;31.13;;
39846;SDS011;25517;52.422;10.782;2023-04-10T00:47:26;58.85;;;31.70;;
39846;SDS011;25517;52.422;10.782;2023-04-10T00:49:52;55.28;;;30.10;;
39846;SDS011;25517;52.422;10.782;2023-04-10T00:52:18;54.10;;;28.63;;
39846;SDS011;25517;52.422;10.782;2023-04-10T00:54:44;51.63;;;28.38;;
39846;SDS011;25517;52.422;10.782;2023-04-10T00:57:09;59.88;;;31.23;;
39846;SDS011;25517;52.422;10.782;2023-04-10T00:59:35;51.28;;;28.75;;
39846;SDS011;25517;52.422;10.782;2023-04-10T01:02:01;60.15;;;30.30;;
39846;SDS011;25517;52.422;10.782;2023-04-10T01:04:27;48.60;;;27.17;;
39846;SDS011;25517;52.422;10.782;2023-04-10T01:06:58;48.47;;;26.63;;
39846;SDS011;25517;52.422;10.782;2023-04-10T01:09:40;56.15;;;29.13;;
39846;SDS011;25517;52.422;10.782;2023-04-10T01:20:18;54.13;;;29.67;;
39846;SDS011;25517;52.422;10.782;2023-04-10T01:25:37;55.80;;;31.20;;
39846;SDS011;25517;52.422;10.782;2023-04-10T01:30:35;62.38;;;33.05;;
39846;SDS011;25517;52.422;10.782;2023-04-10T01:33:01;62.70;;;32.67;;
39846;SDS011;25517;52.422;10.782;2023-04-10T01:35:29;66.50;;;32.63;;
39846;SDS011;25517;52.422;10.782;2023-04-10T01:37:57;59.78;;;32.78;;
39846;SDS011;25517;52.422;10.782;2023-04-10T01:40:25;61.55;;;32.22;;
39846;SDS011;25517;52.422;10.782;2023-04-10T01:42:52;60.60;;;31.88;;
39846;SDS011;25517;52.422;10.782;2023-04-10T01:45:20;59.25;;;30.27;;
39846;SDS011;25517;52.422;10.782;2023-04-10T01:47:50;65.78;;;34.75;;
39846;SDS011;25517;52.422;10.782;2023-04-10T01:50:17;64.72;;;32.47;;
39846;SDS011;25517;52.422;10.782;2023-04-10T01:52:44;69.13;;;33.22;;
39846;SDS011;25517;52.422;10.782;2023-04-10T01:55:11;67.40;;;33.05;;
39846;SDS011;25517;52.422;10.782;2023-04-10T01:57:36;64.18;;;32.97;;
39846;SDS011;25517;52.422;10.782;2023-04-10T02:00:02;75.32;;;38.90;;
39846;SDS011;25517;52.422;10.782;2023-04-10T02:02:31;67.93;;;36.58;;
39846;SDS011;25517;52.422;10.782;2023-04-10T02:04:57;60.28;;;32.08;;
39846;SDS011;25517;52.422;10.782;2023-04-10T02:07:24;59.72;;;32.70;;
39846;SDS011;25517;52.422;10.782;2023-04-10T02:10:12;63.33;;;31.38;;
39846;SDS011;25517;52.422;10.782;2023-04-10T02:12:57;61.80;;;31.25;;
39846;SDS011;25517;52.422;10.782;2023-04-10T02:15:26;61.33;;;31.83;;
39846;SDS011;25517;52.422;10.782;2023-04-10T02:17:54;66.75;;;32.78;;
39846;SDS011;25517;52.422;10.782;2023-04-10T02:20:22;69.78;;;33.55;;
39846;SDS011;25517;52.422;10.782;2023-04-10T02:22:49;67.32;;;35.58;;
39846;SDS011;25517;52.422;10.782;2023-04-10T02:25:16;62.85;;;31.48;;
39846;SDS011;25517;52.422;10.782;2023-04-10T02:27:41;66.70;;;34.10;;
39846;SDS011;25517;52.422;10.782;2023-04-10T02:30:07;62.92;;;32.72;;
39846;SDS011;25517;52.422;10.782;2023-04-10T02:32:33;64.45;;;32.13;;
39846;SDS011;25517;52.422;10.782;2023-04-10T02:34:58;60.00;;;30.88;;
39846;SDS011;25517;52.422;10.782;2023-04-10T02:37:24;58.13;;;30.23;;
39846;SDS011;25517;52.422;10.782;2023-04-10T02:39:50;61.28;;;32.00;;
39846;SDS011;25517;52.422;10.782;2023-04-10T02:42:16;54.67;;;29.88;;
39846;SDS011;25517;52.422;10.782;2023-04-10T02:44:42;58.25;;;28.65;;
39846;SDS011;25517;52.422;10.782;2023-04-10T02:47:07;57.50;;;31.50;;
39846;SDS011;25517;52.422;10.782;2023-04-10T02:49:33;58.78;;;32.00;;
39846;SDS011;25517;52.422;10.782;2023-04-10T02:51:59;58.92;;;31.65;;
39846;SDS011;25517;52.422;10.782;2023-04-10T02:54:25;62.92;;;31.63;;
39846;SDS011;25517;52.422;10.782;2023-04-10T02:56:51;66.10;;;32.55;;
39846;SDS011;25517;52.422;10.782;2023-04-10T02:59:16;68.13;;;34.50;;
39846;SDS011;25517;52.422;10.782;2023-04-10T03:01:42;61.17;;;31.52;;
39846;SDS011;25517;52.422;10.782;2023-04-10T03:04:09;70.25;;;33.65;;
39846;SDS011;25517;52.422;10.782;2023-04-10T03:06:35;77.60;;;37.25;;
39846;SDS011;25517;52.422;10.782;2023-04-10T03:09:01;73.55;;;35.35;;
39846;SDS011;25517;52.422;10.782;2023-04-10T03:11:26;76.68;;;37.10;;
39846;SDS011;25517;52.422;10.782;2023-04-10T03:13:52;65.70;;;33.08;;
39846;SDS011;25517;52.422;10.782;2023-04-10T03:16:17;78.57;;;38.22;;
39846;SDS011;25517;52.422;10.782;2023-04-10T03:18:43;73.53;;;34.53;;
39846;SDS011;25517;52.422;10.782;2023-04-10T03:21:09;64.38;;;32.88;;
39846;SDS011;25517;52.422;10.782;2023-04-10T03:23:35;60.38;;;30.88;;
39846;SDS011;25517;52.422;10.782;2023-04-10T03:26:01;59.05;;;31.45;;
39846;SDS011;25517;52.422;10.782;2023-04-10T03:28:28;59.90;;;31.50;;
39846;SDS011;25517;52.422;10.782;2023-04-10T03:30:54;56.70;;;30.38;;
39846;SDS011;25517;52.422;10.782;2023-04-10T03:33:20;63.17;;;31.45;;
39846;SDS011;25517;52.422;10.782;2023-04-10T03:35:46;60.65;;;32.90;;
39846;SDS011;25517;52.422;10.782;2023-04-10T03:38:11;63.85;;;31.92;;
39846;SDS011;25517;52.422;10.782;2023-04-10T03:40:37;60.53;;;31.02;;
39846;SDS011;25517;52.422;10.782;2023-04-10T03:43:03;63.10;;;33.17;;
39846;SDS011;25517;52.422;10.782;2023-04-10T03:45:28;63.47;;;30.30;;
39846;SDS011;25517;52.422;10.782;2023-04-10T03:47:54;60.83;;;31.83;;
39846;SDS011;25517;52.422;10.782;2023-04-10T03:50:19;68.25;;;32.15;;
39846;SDS011;25517;52.422;10.782;2023-04-10T03:52:45;57.38;;;30.15;;
39846;SDS011;25517;52.422;10.782;2023-04-10T03:55:11;65.00;;;31.27;;
39846;SDS011;25517;52.422;10.782;2023-04-10T03:57:36;72.90;;;34.97;;
39846;SDS011;25517;52.422;10.782;2023-04-10T04:00:02;76.07;;;34.85;;
39846;SDS011;25517;52.422;10.782;2023-04-10T04:02:29;76.00;;;35.47;;
39846;SDS011;25517;52.422;10.782;2023-04-10T04:04:55;75.57;;;33.35;;
39846;SDS011;25517;52.422;10.782;2023-04-10T04:07:21;67.28;;;33.30;;
39846;SDS011;25517;52.422;10.782;2023-04-10T04:09:46;71.68;;;32.72;;
39846;SDS011;25517;52.422;10.782;2023-04-10T04:12:12;57.38;;;31.85;;
39846;SDS011;25517;52.422;10.782;2023-04-10T04:14:37;59.70;;;30.25;;
39846;SDS011;25517;52.422;10.782;2023-04-10T04:17:03;61.45;;;31.38;;
39846;SDS011;25517;52.422;10.782;2023-04-10T04:19:28;61.90;;;30.50;;
39846;SDS011;25517;52.422;10.782;2023-04-10T04:21:54;62.03;;;32.08;;
39846;SDS011;25517;52.422;10.782;2023-04-10T04:24:20;57.83;;;30.20;;
39846;SDS011;25517;52.422;10.782;2023-04-10T04:26:45;56.05;;;29.77;;
39846;SDS011;25517;52.422;10.782;2023-04-10T04:29:11;51.33;;;27.58;;
39846;SDS011;25517;52.422;10.782;2023-04-10T04:31:37;57.40;;;28.58;;
39846;SDS011;25517;52.422;10.782;2023-04-10T04:34:02;60.13;;;30.38;;
39846;SDS011;25517;52.422;10.782;2023-04-10T04:36:28;61.55;;;29.92;;
39846;SDS011;25517;52.422;10.782;2023-04-10T04:38:53;58.22;;;29.48;;
39846;SDS011;25517;52.422;10.782;2023-04-10T04:41:19;55.13;;;29.13;;
39846;SDS011;25517;52.422;10.782;2023-04-10T04:43:45;53.70;;;28.25;;
39846;SDS011;25517;52.422;10.782;2023-04-10T04:46:15;42.20;;;20.95;;
39846;SDS011;25517;52.422;10.782;2023-04-10T04:48:40;53.92;;;28.08;;
39846;SDS011;25517;52.422;10.782;2023-04-10T04:51:06;51.55;;;26.38;;
39846;SDS011;25517;52.422;10.782;2023-04-10T04:53:31;51.22;;;26.70;;
39846;SDS011;25517;52.422;10.782;2023-04-10T04:55:57;55.75;;;28.77;;
39846;SDS011;25517;52.422;10.782;2023-04-10T04:58:22;54.60;;;28.35;;
39846;SDS011;25517;52.422;10.782;2023-04-10T05:00:48;52.08;;;27.90;;
39846;SDS011;25517;52.422;10.782;2023-04-10T05:03:15;51.67;;;27.55;;
39846;SDS011;25517;52.422;10.782;2023-04-10T05:05:41;58.28;;;29.33;;
39846;SDS011;25517;52.422;10.782;2023-04-10T05:08:07;49.70;;;27.00;;
39846;SDS011;25517;52.422;10.782;2023-04-10T05:10:33;54.08;;;28.98;;
39846;SDS011;25517;52.422;10.782;2023-04-10T05:12:58;54.42;;;28.83;;
39846;SDS011;25517;52.422;10.782;2023-04-10T05:15:24;53.80;;;27.70;;
39846;SDS011;25517;52.422;10.782;2023-04-10T05:17:50;60.05;;;30.50;;
39846;SDS011;25517;52.422;10.782;2023-04-10T05:20:16;63.63;;;29.70;;
39846;SDS011;25517;52.422;10.782;2023-04-10T05:22:42;58.08;;;30.23;;
39846;SDS011;25517;52.422;10.782;2023-04-10T05:25:08;60.67;;;32.33;;
39846;SDS011;25517;52.422;10.782;2023-04-10T05:27:33;60.72;;;31.30;;
39846;SDS011;25517;52.422;10.782;2023-04-10T05:29:59;63.40;;;31.83;;
39846;SDS011;25517;52.422;10.782;2023-04-10T05:32:24;53.38;;;27.63;;
39846;SDS011;25517;52.422;10.782;2023-04-10T05:34:50;55.58;;;28.70;;
39846;SDS011;25517;52.422;10.782;2023-04-10T05:37:16;63.55;;;31.85;;
39846;SDS011;25517;52.422;10.782;2023-04-10T05:39:41;72.22;;;34.10;;
39846;SDS011;25517;52.422;10.782;2023-04-10T05:42:07;54.50;;;28.10;;
39846;SDS011;25517;52.422;10.782;2023-04-10T05:44:32;64.88;;;33.05;;
39846;SDS011;25517;52.422;10.782;2023-04-10T05:46:58;56.72;;;30.05;;
39846;SDS011;25517;52.422;10.782;2023-04-10T05:49:23;57.20;;;30.15;;
39846;SDS011;25517;52.422;10.782;2023-04-10T05:51:49;58.47;;;29.92;;
39846;SDS011;25517;52.422;10.782;2023-04-10T05:54:15;53.97;;;29.08;;
39846;SDS011;25517;52.422;10.782;2023-04-10T05:56:41;52.70;;;29.17;;
39846;SDS011;25517;52.422;10.782;2023-04-10T05:59:07;48.72;;;27.90;;
39846;SDS011;25517;52.422;10.782;2023-04-10T06:01:32;56.45;;;29.77;;
39846;SDS011;25517;52.422;10.782;2023-04-10T06:03:58;60.55;;;30.73;;
39846;SDS011;25517;52.422;10.782;2023-04-10T06:06:24;60.30;;;32.67;;
39846;SDS011;25517;52.422;10.782;2023-04-10T06:08:50;52.25;;;28.35;;
39846;SDS011;25517;52.422;10.782;2023-04-10T06:11:16;49.63;;;28.45;;
39846;SDS011;25517;52.422;10.782;2023-04-10T06:13:42;51.20;;;28.52;;
39846;SDS011;25517;52.422;10.782;2023-04-10T06:16:08;66.13;;;34.53;;
39846;SDS011;25517;52.422;10.782;2023-04-10T06:18:33;56.58;;;29.75;;
39846;SDS011;25517;52.422;10.782;2023-04-10T06:20:59;55.38;;;31.05;;
39846;SDS011;25517;52.422;10.782;2023-04-10T06:23:26;57.60;;;30.85;;
39846;SDS011;25517;52.422;10.782;2023-04-10T06:25:52;56.63;;;29.83;;
39846;SDS011;25517;52.422;10.782;2023-04-10T06:28:18;55.55;;;29.15;;
39846;SDS011;25517;52.422;10.782;2023-04-10T06:30:44;57.60;;;31.73;;
39846;SDS011;25517;52.422;10.782;2023-04-10T06:33:09;47.75;;;26.80;;
39846;SDS011;25517;52.422;10.782;2023-04-10T06:35:35;47.08;;;27.17;;
39846;SDS011;25517;52.422;10.782;2023-04-10T06:38:01;47.42;;;27.10;;
39846;SDS011;25517;52.422;10.782;2023-04-10T06:40:27;56.17;;;30.52;;
39846;SDS011;25517;52.422;10.782;2023-04-10T06:42:53;51.70;;;28.75;;
39846;SDS011;25517;52.422;10.782;2023-04-10T06:45:19;49.65;;;28.60;;
39846;SDS011;25517;52.422;10.782;2023-04-10T06:47:45;44.65;;;27.63;;
39846;SDS011;25517;52.422;10.782;2023-04-10T06:50:11;47.13;;;28.08;;
39846;SDS011;25517;52.422;10.782;2023-04-10T06:52:36;48.88;;;27.55;;
39846;SDS011;25517;52.422;10.782;2023-04-10T06:55:02;45.33;;;26.42;;
39846;SDS011;25517;52.422;10.782;2023-04-10T06:57:27;42.15;;;26.80;;
39846;SDS011;25517;52.422;10.782;2023-04-10T06:59:53;47.63;;;27.95;;
39846;SDS011;25517;52.422;10.782;2023-04-10T07:02:19;47.47;;;26.25;;
39846;SDS011;25517;52.422;10.782;2023-04-10T07:04:45;46.42;;;28.48;;
39846;SDS011;25517;52.422;10.782;2023-04-10T07:07:10;48.10;;;29.48;;
39846;SDS011;25517;52.422;10.782;2023-04-10T07:09:37;43.63;;;27.17;;
39846;SDS011;25517;52.422;10.782;2023-04-10T07:12:03;39.92;;;24.70;;
39846;SDS011;25517;52.422;10.782;2023-04-10T07:14:31;44.47;;;26.40;;
39846;SDS011;25517;52.422;10.782;2023-04-10T07:16:57;37.60;;;23.55;;
39846;SDS011;25517;52.422;10.782;2023-04-10T07:19:23;36.67;;;21.38;;
39846;SDS011;25517;52.422;10.782;2023-04-10T07:21:48;31.73;;;20.85;;
39846;SDS011;25517;52.422;10.782;2023-04-10T07:24:14;31.05;;;19.48;;
39846;SDS011;25517;52.422;10.782;2023-04-10T07:26:41;26.13;;;18.08;;
39846;SDS011;25517;52.422;10.782;2023-04-10T07:29:10;26.00;;;16.63;;
39846;SDS011;25517;52.422;10.782;2023-04-10T07:31:36;23.95;;;15.70;;
39846;SDS011;25517;52.422;10.782;2023-04-10T07:34:02;18.88;;;14.55;;
39846;SDS011;25517;52.422;10.782;2023-04-10T07:36:27;21.30;;;14.18;;
39846;SDS011;25517;52.422;10.782;2023-04-10T07:38:53;20.88;;;14.10;;
39846;SDS011;25517;52.422;10.782;2023-04-10T07:41:20;18.67;;;14.25;;
39846;SDS011;25517;52.422;10.782;2023-04-10T07:43:46;20.77;;;14.30;;
39846;SDS011;25517;52.422;10.782;2023-04-10T07:46:11;18.08;;;12.65;;
39846;SDS011;25517;52.422;10.782;2023-04-10T07:48:37;18.90;;;13.93;;
39846;SDS011;25517;52.422;10.782;2023-04-10T07:51:03;17.42;;;13.43;;
39846;SDS011;25517;52.422;10.782;2023-04-10T07:53:28;16.92;;;12.88;;
39846;SDS011;25517;52.422;10.782;2023-04-10T07:55:55;17.05;;;12.48;;
39846;SDS011;25517;52.422;10.782;2023-04-10T07:58:20;18.15;;;12.48;;
39846;SDS011;25517;52.422;10.782;2023-04-10T08:00:46;18.42;;;13.68;;
39846;SDS011;25517;52.422;10.782;2023-04-10T08:03:13;17.77;;;12.52;;
39846;SDS011;25517;52.422;10.782;2023-04-10T08:05:39;16.65;;;12.05;;
39846;SDS011;25517;52.422;10.782;2023-04-10T08:08:05;15.50;;;12.10;;
39846;SDS011;25517;52.422;10.782;2023-04-10T08:10:30;17.30;;;13.27;;
39846;SDS011;25517;52.422;10.782;2023-04-10T08:12:56;12.48;;;10.45;;
39846;SDS011;25517;52.422;10.782;2023-04-10T08:15:22;13.95;;;10.88;;
39846;SDS011;25517;52.422;10.782;2023-04-10T08:17:47;13.48;;;10.73;;
39846;SDS011;25517;52.422;10.782;2023-04-10T08:20:13;10.95;;;9.48;;
39846;SDS011;25517;52.422;10.782;2023-04-10T08:22:38;12.35;;;10.93;;
39846;SDS011;25517;52.422;10.782;2023-04-10T08:25:04;11.77;;;9.93;;
39846;SDS011;25517;52.422;10.782;2023-04-10T08:27:30;13.63;;;11.30;;
39846;SDS011;25517;52.422;10.782;2023-04-10T08:29:55;13.85;;;11.85;;
39846;SDS011;25517;52.422;10.782;2023-04-10T08:32:21;11.77;;;10.52;;
39846;SDS011;25517;52.422;10.782;2023-04-10T08:34:48;13.20;;;11.68;;
39846;SDS011;25517;52.422;10.782;2023-04-10T08:37:13;13.50;;;11.93;;
39846;SDS011;25517;52.422;10.782;2023-04-10T08:39:39;14.25;;;12.75;;
39846;SDS011;25517;52.422;10.782;2023-04-10T08:42:05;13.00;;;11.70;;
39846;SDS011;25517;52.422;10.782;2023-04-10T08:44:31;12.43;;;11.13;;
39846;SDS011;25517;52.422;10.782;2023-04-10T08:46:57;13.23;;;11.63;;
39846;SDS011;25517;52.422;10.782;2023-04-10T08:49:59;12.90;;;11.60;;
39846;SDS011;25517;52.422;10.782;2023-04-10T08:52:25;13.48;;;12.18;;
39846;SDS011;25517;52.422;10.782;2023-04-10T08:54:55;13.32;;;12.02;;
39846;SDS011;25517;52.422;10.782;2023-04-10T08:57:23;13.13;;;11.85;;
39846;SDS011;25517;52.422;10.782;2023-04-10T08:59:51;13.23;;;12.02;;
39846;SDS011;25517;52.422;10.782;2023-04-10T09:02:17;13.45;;;12.15;;
39846;SDS011;25517;52.422;10.782;2023-04-10T09:04:49;13.07;;;11.77;;
39846;SDS011;25517;52.422;10.782;2023-04-10T09:07:18;13.48;;;12.07;;
39846;SDS011;25517;52.422;10.782;2023-04-10T09:09:43;16.55;;;14.30;;
39846;SDS011;25517;52.422;10.782;2023-04-10T09:12:10;14.00;;;12.25;;
39846;SDS011;25517;52.422;10.782;2023-04-10T09:14:39;13.55;;;12.07;;
39846;SDS011;25517;52.422;10.782;2023-04-10T09:17:21;13.73;;;12.20;;
39846;SDS011;25517;52.422;10.782;2023-04-10T09:19:51;12.57;;;11.27;;
39846;SDS011;25517;52.422;10.782;2023-04-10T09:22:27;14.63;;;13.13;;
39846;SDS011;25517;52.422;10.782;2023-04-10T09:24:58;13.40;;;12.07;;
39846;SDS011;25517;52.422;10.782;2023-04-10T09:27:31;12.20;;;11.00;;
39846;SDS011;25517;52.422;10.782;2023-04-10T09:29:59;13.00;;;11.68;;
39846;SDS011;25517;52.422;10.782;2023-04-10T09:32:42;12.63;;;11.43;;
39846;SDS011;25517;52.422;10.782;2023-04-10T09:35:10;12.43;;;11.07;;
39846;SDS011;25517;52.422;10.782;2023-04-10T09:37:37;11.07;;;9.95;;
39846;SDS011;25517;52.422;10.782;2023-04-10T09:40:05;10.85;;;9.77;;
39846;SDS011;25517;52.422;10.782;2023-04-10T09:42:43;12.73;;;11.48;;
39846;SDS011;25517;52.422;10.782;2023-04-10T09:45:08;12.52;;;11.32;;
39846;SDS011;25517;52.422;10.782;2023-04-10T09:47:34;13.52;;;12.13;;
39846;SDS011;25517;52.422;10.782;2023-04-10T09:50:00;12.05;;;10.85;;
39846;SDS011;25517;52.422;10.782;2023-04-10T09:52:29;10.77;;;9.77;;
39846;SDS011;25517;52.422;10.782;2023-04-10T09:54:58;12.13;;;10.93;;
39846;SDS011;25517;52.422;10.782;2023-04-10T09:57:33;10.15;;;9.20;;
39846;SDS011;25517;52.422;10.782;2023-04-10T10:00:03;11.77;;;10.48;;
39846;SDS011;25517;52.422;10.782;2023-04-10T10:02:33;11.32;;;10.15;;
39846;SDS011;25517;52.422;10.782;2023-04-10T10:05:02;9.50;;;8.52;;
39846;SDS011;25517;52.422;10.782;2023-04-10T10:07:29;11.82;;;10.63;;
39846;SDS011;25517;52.422;10.782;2023-04-10T10:09:55;11.38;;;10.23;;
39846;SDS011;25517;52.422;10.782;2023-04-10T10:12:23;11.77;;;9.90;;
39846;SDS011;25517;52.422;10.782;2023-04-10T10:18:21;14.77;;;11.10;;
39846;SDS011;25517;52.422;10.782;2023-04-10T10:21:02;10.75;;;9.63;;
39846;SDS011;25517;52.422;10.782;2023-04-10T10:23:30;10.30;;;9.27;;
39846;SDS011;25517;52.422;10.782;2023-04-10T10:25:57;10.95;;;9.82;;
39846;SDS011;25517;52.422;10.782;2023-04-10T10:28:24;10.27;;;9.18;;
39846;SDS011;25517;52.422;10.782;2023-04-10T10:30:51;11.57;;;10.38;;
39846;SDS011;25517;52.422;10.782;2023-04-10T10:33:18;12.25;;;10.95;;
39846;SDS011;25517;52.422;10.782;2023-04-10T10:35:43;11.75;;;10.55;;
39846;SDS011;25517;52.422;10.782;2023-04-10T10:38:10;13.13;;;11.45;;
39846;SDS011;25517;52.422;10.782;2023-04-10T10:43:24;13.80;;;9.77;;
39846;SDS011;25517;52.422;10.782;2023-04-10T10:46:03;10.10;;;9.20;;
39846;SDS011;25517;52.422;10.782;2023-04-10T10:48:33;12.07;;;10.88;;
39846;SDS011;25517;52.422;10.782;2023-04-10T10:50:59;11.57;;;10.38;;
39846;SDS011;25517;52.422;10.782;2023-04-10T10:56:31;11.68;;;10.57;;
39846;SDS011;25517;52.422;10.782;2023-04-10T10:58:56;10.35;;;9.27;;
39846;SDS011;25517;52.422;10.782;2023-04-10T11:01:22;10.18;;;9.18;;
39846;SDS011;25517;52.422;10.782;2023-04-10T11:03:48;9.65;;;8.75;;
39846;SDS011;25517;52.422;10.782;2023-04-10T11:06:15;10.05;;;8.75;;
39846;SDS011;25517;52.422;10.782;2023-04-10T11:11:19;11.68;;;10.07;;
39846;SDS011;25517;52.422;10.782;2023-04-10T11:21:26;11.93;;;10.73;;
39846;SDS011;25517;52.422;10.782;2023-04-10T11:29:00;14.85;;;13.27;;
39846;SDS011;25517;52.422;10.782;2023-04-10T11:31:27;15.02;;;13.18;;
39846;SDS011;25517;52.422;10.782;2023-04-10T11:36:24;16.15;;;14.20;;
39846;SDS011;25517;52.422;10.782;2023-04-10T11:38:57;16.20;;;13.73;;
39846;SDS011;25517;52.422;10.782;2023-04-10T11:41:39;13.55;;;12.18;;
39846;SDS011;25517;52.422;10.782;2023-04-10T11:44:07;15.23;;;13.07;;
39846;SDS011;25517;52.422;10.782;2023-04-10T11:46:38;13.32;;;11.57;;
39846;SDS011;25517;52.422;10.782;2023-04-10T11:51:48;10.00;;;8.77;;
39846;SDS011;25517;52.422;10.782;2023-04-10T11:54:15;10.20;;;8.68;;
39846;SDS011;25517;52.422;10.782;2023-04-10T11:56:43;15.73;;;9.63;;
39846;SDS011;25517;52.422;10.782;2023-04-10T11:59:37;11.43;;;10.15;;
39846;SDS011;25517;52.422;10.782;2023-04-10T12:02:07;11.45;;;10.25;;
39846;SDS011;25517;52.422;10.782;2023-04-10T12:04:35;10.55;;;9.32;;
39846;SDS011;25517;52.422;10.782;2023-04-10T12:07:01;10.82;;;8.73;;
39846;SDS011;25517;52.422;10.782;2023-04-10T12:09:27;8.70;;;7.80;;
39846;SDS011;25517;52.422;10.782;2023-04-10T12:11:54;9.02;;;7.40;;
39846;SDS011;25517;52.422;10.782;2023-04-10T12:14:27;9.23;;;7.15;;
39846;SDS011;25517;52.422;10.782;2023-04-10T12:17:07;8.63;;;7.30;;
39846;SDS011;25517;52.422;10.782;2023-04-10T12:19:34;9.98;;;7.15;;
39846;SDS011;25517;52.422;10.782;2023-04-10T12:22:00;9.85;;;8.00;;
39846;SDS011;25517;52.422;10.782;2023-04-10T12:24:48;9.15;;;8.18;;
39846;SDS011;25517;52.422;10.782;2023-04-10T12:27:22;9.20;;;6.75;;
39846;SDS011;25517;52.422;10.782;2023-04-10T12:29:52;10.15;;;7.22;;
39846;SDS011;25517;52.422;10.782;2023-04-10T12:32:19;10.75;;;7.32;;
39846;SDS011;25517;52.422;10.782;2023-04-10T12:34:52;10.23;;;7.72;;
39846;SDS011;25517;52.422;10.782;2023-04-10T12:37:22;9.73;;;7.95;;
39846;SDS011;25517;52.422;10.782;2023-04-10T12:39:49;8.00;;;6.82;;
39846;SDS011;25517;52.422;10.782;2023-04-10T12:42:22;8.57;;;6.13;;
39846;SDS011;25517;52.422;10.782;2023-04-10T12:45:07;8.60;;;6.75;;
39846;SDS011;25517;52.422;10.782;2023-04-10T12:47:46;10.25;;;7.22;;
39846;SDS011;25517;52.422;10.782;2023-04-10T12:50:16;9.80;;;6.50;;
39846;SDS011;25517;52.422;10.782;2023-04-10T12:53:00;9.98;;;7.65;;
39846;SDS011;25517;52.422;10.782;2023-04-10T12:55:27;11.15;;;7.70;;
39846;SDS011;25517;52.422;10.782;2023-04-10T12:57:53;10.25;;;7.68;;
39846;SDS011;25517;52.422;10.782;2023-04-10T13:00:19;13.10;;;7.80;;
39846;SDS011;25517;52.422;10.782;2023-04-10T13:02:45;12.38;;;7.68;;
39846;SDS011;25517;52.422;10.782;2023-04-10T13:05:11;12.57;;;7.68;;
39846;SDS011;25517;52.422;10.782;2023-04-10T13:07:37;10.48;;;7.65;;
39846;SDS011;25517;52.422;10.782;2023-04-10T13:10:03;12.27;;;6.80;;
39846;SDS011;25517;52.422;10.782;2023-04-10T13:12:29;8.15;;;6.32;;
39846;SDS011;25517;52.422;10.782;2023-04-10T13:14:55;14.48;;;6.68;;
39846;SDS011;25517;52.422;10.782;2023-04-10T13:17:24;9.23;;;7.15;;
39846;SDS011;25517;52.422;10.782;2023-04-10T13:19:50;8.75;;;7.60;;
39846;SDS011;25517;52.422;10.782;2023-04-10T13:22:15;10.63;;;7.35;;
39846;SDS011;25517;52.422;10.782;2023-04-10T13:24:42;12.43;;;9.27;;
39846;SDS011;25517;52.422;10.782;2023-04-10T13:27:08;12.05;;;9.20;;
39846;SDS011;25517;52.422;10.782;2023-04-10T13:29:34;9.15;;;7.63;;
39846;SDS011;25517;52.422;10.782;2023-04-10T13:32:01;13.25;;;7.93;;
39846;SDS011;25517;52.422;10.782;2023-04-10T13:34:29;10.20;;;7.85;;
39846;SDS011;25517;52.422;10.782;2023-04-10T13:36:55;7.82;;;6.43;;
39846;SDS011;25517;52.422;10.782;2023-04-10T13:39:20;10.27;;;7.10;;
39846;SDS011;25517;52.422;10.782;2023-04-10T13:41:46;9.15;;;6.20;;
39846;SDS011;25517;52.422;10.782;2023-04-10T13:44:11;12.10;;;7.20;;
39846;SDS011;25517;52.422;10.782;2023-04-10T13:46:37;9.20;;;6.80;;
39846;SDS011;25517;52.422;10.782;2023-04-10T13:49:02;12.43;;;7.45;;
39846;SDS011;25517;52.422;10.782;2023-04-10T13:51:28;9.23;;;6.78;;
39846;SDS011;25517;52.422;10.782;2023-04-10T13:53:54;10.02;;;7.97;;
39846;SDS011;25517;52.422;10.782;2023-04-10T13:56:19;10.18;;;7.38;;
39846;SDS011;25517;52.422;10.782;2023-04-10T13:58:45;7.57;;;6.50;;
39846;SDS011;25517;52.422;10.782;2023-04-10T14:01:10;8.15;;;6.22;;
39846;SDS011;25517;52.422;10.782;2023-04-10T14:03:36;7.50;;;5.90;;
39846;SDS011;25517;52.422;10.782;2023-04-10T14:06:02;7.22;;;6.35;;
39846;SDS011;25517;52.422;10.782;2023-04-10T14:08:27;7.75;;;6.18;;
39846;SDS011;25517;52.422;10.782;2023-04-10T14:10:53;9.23;;;7.05;;
39846;SDS011;25517;52.422;10.782;2023-04-10T14:13:19;13.95;;;7.38;;
39846;SDS011;25517;52.422;10.782;2023-04-10T14:15:44;13.63;;;7.15;;
39846;SDS011;25517;52.422;10.782;2023-04-10T14:18:10;11.85;;;7.03;;
39846;SDS011;25517;52.422;10.782;2023-04-10T14:20:36;9.80;;;6.65;;
39846;SDS011;25517;52.422;10.782;2023-04-10T14:23:02;9.68;;;6.88;;
39846;SDS011;25517;52.422;10.782;2023-04-10T14:25:28;12.32;;;6.35;;
39846;SDS011;25517;52.422;10.782;2023-04-10T14:27:53;10.10;;;6.20;;
39846;SDS011;25517;52.422;10.782;2023-04-10T14:30:19;9.02;;;6.05;;
39846;SDS011;25517;52.422;10.782;2023-04-10T14:32:44;9.02;;;6.50;;
39846;SDS011;25517;52.422;10.782;2023-04-10T14:35:10;9.65;;;6.18;;
39846;SDS011;25517;52.422;10.782;2023-04-10T14:37:36;11.38;;;6.05;;
39846;SDS011;25517;52.422;10.782;2023-04-10T14:40:02;7.43;;;5.55;;
39846;SDS011;25517;52.422;10.782;2023-04-10T14:42:29;6.63;;;5.40;;
39846;SDS011;25517;52.422;10.782;2023-04-10T14:44:54;7.47;;;5.30;;
39846;SDS011;25517;52.422;10.782;2023-04-10T14:47:22;5.40;;;4.85;;
39846;SDS011;25517;52.422;10.782;2023-04-10T14:49:48;7.60;;;6.00;;
39846;SDS011;25517;52.422;10.782;2023-04-10T14:52:13;9.15;;;6.65;;
39846;SDS011;25517;52.422;10.782;2023-04-10T14:54:39;8.23;;;6.07;;
39846;SDS011;25517;52.422;10.782;2023-04-10T14:57:05;8.00;;;5.50;;